sensor_id;sensor_type;location;lat;lon;timestamp;temperature;humidity
23609;DHT22;11982;50.810;4.442;2023-01-10T00:00:50;5.20;99.90
23609;DHT22;11982;50.810;4.442;2023-01-10T00:03:16;5.20;99.90
23609;DHT22;11982;50.810;4.442;2023-01-10T00:05:42;5.30;99.90
23609;DHT22;11982;50.810;4.442;2023-01-10T00:08:09;5.30;99.90
23609;DHT22;11982;50.810;4.442;2023-01-10T00:10:38;5.30;99.90
23609;DHT22;11982;50.810;4.442;2023-01-10T00:13:04;5.30;99.90
23609;DHT22;11982;50.810;4.442;2023-01-10T00:15:48;5.30;99.90
23609;DHT22;11982;50.810;4.442;2023-01-10T00:18:14;5.20;99.90
23609;DHT22;11982;50.810;4.442;2023-01-10T00:20:40;5.20;99.90
23609;DHT22;11982;50.810;4.442;2023-01-10T00:23:06;5.10;99.90
23609;DHT22;11982;50.810;4.442;2023-01-10T00:25:32;5.10;99.90
23609;DHT22;11982;50.810;4.442;2023-01-10T00:28:00;5.10;99.90
23609;DHT22;11982;50.810;4.442;2023-01-10T00:30:40;5.00;99.90
23609;DHT22;11982;50.810;4.442;2023-01-10T00:33:06;5.00;99.90
23609;DHT22;11982;50.810;4.442;2023-01-10T00:35:32;5.00;99.90
23609;DHT22;11982;50.810;4.442;2023-01-10T00:37:58;5.10;99.90
23609;DHT22;11982;50.810;4.442;2023-01-10T00:40:30;5.20;99.90
23609;DHT22;11982;50.810;4.442;2023-01-10T00:42:57;5.20;99.90
23609;DHT22;11982;50.810;4.442;2023-01-10T00:45:46;5.20;99.90
23609;DHT22;11982;50.810;4.442;2023-01-10T00:48:13;5.30;99.90
23609;DHT22;11982;50.810;4.442;2023-01-10T00:50:39;5.30;99.90
23609;DHT22;11982;50.810;4.442;2023-01-10T00:53:05;5.30;99.90
23609;DHT22;11982;50.810;4.442;2023-01-10T00:55:31;5.40;99.90
23609;DHT22;11982;50.810;4.442;2023-01-10T00:57:57;5.40;99.90
23609;DHT22;11982;50.810;4.442;2023-01-10T01:00:23;5.50;99.90
23609;DHT22;11982;50.810;4.442;2023-01-10T01:02:49;5.50;99.90
23609;DHT22;11982;50.810;4.442;2023-01-10T01:05:16;5.50;99.90
23609;DHT22;11982;50.810;4.442;2023-01-10T01:07:42;5.50;99.90
23609;DHT22;11982;50.810;4.442;2023-01-10T01:10:08;5.60;99.90
23609;DHT22;11982;50.810;4.442;2023-01-10T01:12:53;5.60;99.90
23609;DHT22;11982;50.810;4.442;2023-01-10T01:15:19;5.70;99.90
23609;DHT22;11982;50.810;4.442;2023-01-10T01:17:46;5.60;99.90
23609;DHT22;11982;50.810;4.442;2023-01-10T01:20:12;5.60;99.90
23609;DHT22;11982;50.810;4.442;2023-01-10T01:22:39;5.60;99.90
23609;DHT22;11982;50.810;4.442;2023-01-10T01:25:05;5.60;99.90
23609;DHT22;11982;50.810;4.442;2023-01-10T01:27:31;5.60;99.90
23609;DHT22;11982;50.810;4.442;2023-01-10T01:29:57;5.40;99.90
23609;DHT22;11982;50.810;4.442;2023-01-10T01:32:23;5.40;99.90
23609;DHT22;11982;50.810;4.442;2023-01-10T01:34:49;5.30;99.90
23609;DHT22;11982;50.810;4.442;2023-01-10T01:37:15;5.30;99.90
23609;DHT22;11982;50.810;4.442;2023-01-10T01:39:40;5.30;99.90
23609;DHT22;11982;50.810;4.442;2023-01-10T01:42:20;5.20;99.90
23609;DHT22;11982;50.810;4.442;2023-01-10T01:47:33;5.10;99.90
23609;DHT22;11982;50.810;4.442;2023-01-10T01:50:00;5.10;99.90
23609;DHT22;11982;50.810;4.442;2023-01-10T01:52:30;5.10;99.90
23609;DHT22;11982;50.810;4.442;2023-01-10T01:55:01;5.10;99.90
23609;DHT22;11982;50.810;4.442;2023-01-10T01:57:28;5.00;99.90
23609;DHT22;11982;50.810;4.442;2023-01-10T01:59:55;5.00;99.90
23609;DHT22;11982;50.810;4.442;2023-01-10T02:02:27;5.00;99.90
23609;DHT22;11982;50.810;4.442;2023-01-10T02:05:10;5.00;99.90
23609;DHT22;11982;50.810;4.442;2023-01-10T02:07:39;5.10;99.90
23609;DHT22;11982;50.810;4.442;2023-01-10T02:10:13;5.00;99.90
23609;DHT22;11982;50.810;4.442;2023-01-10T02:12:41;5.00;99.90
23609;DHT22;11982;50.810;4.442;2023-01-10T02:15:10;5.00;99.90
23609;DHT22;11982;50.810;4.442;2023-01-10T02:17:36;4.90;99.90
23609;DHT22;11982;50.810;4.442;2023-01-10T02:20:06;4.90;99.90
23609;DHT22;11982;50.810;4.442;2023-01-10T02:33:45;4.90;99.90
23609;DHT22;11982;50.810;4.442;2023-01-10T02:39:06;4.80;99.90
23609;DHT22;11982;50.810;4.442;2023-01-10T02:42:03;4.80;99.90
23609;DHT22;11982;50.810;4.442;2023-01-10T02:44:32;4.80;99.90
23609;DHT22;11982;50.810;4.442;2023-01-10T02:47:02;4.80;99.90
23609;DHT22;11982;50.810;4.442;2023-01-10T02:49:28;4.70;99.90
23609;DHT22;11982;50.810;4.442;2023-01-10T02:51:54;4.70;99.90
23609;DHT22;11982;50.810;4.442;2023-01-10T02:54:26;4.70;99.90
23609;DHT22;11982;50.810;4.442;2023-01-10T03:02:55;4.60;99.90
23609;DHT22;11982;50.810;4.442;2023-01-10T03:05:41;4.50;99.90
23609;DHT22;11982;50.810;4.442;2023-01-10T03:10:55;4.50;99.90
23609;DHT22;11982;50.810;4.442;2023-01-10T03:13:26;4.40;99.90
23609;DHT22;11982;50.810;4.442;2023-01-10T03:15:54;4.40;99.90
23609;DHT22;11982;50.810;4.442;2023-01-10T03:18:32;4.40;99.90
23609;DHT22;11982;50.810;4.442;2023-01-10T03:21:01;4.30;99.90
23609;DHT22;11982;50.810;4.442;2023-01-10T03:23:28;4.40;99.90
23609;DHT22;11982;50.810;4.442;2023-01-10T03:25:55;4.30;99.90
23609;DHT22;11982;50.810;4.442;2023-01-10T03:28:32;4.30;99.90
23609;DHT22;11982;50.810;4.442;2023-01-10T03:31:10;4.30;99.90
23609;DHT22;11982;50.810;4.442;2023-01-10T03:33:38;4.30;99.90
23609;DHT22;11982;50.810;4.442;2023-01-10T03:36:27;4.40;99.90
23609;DHT22;11982;50.810;4.442;2023-01-10T03:47:40;4.50;99.90
23609;DHT22;11982;50.810;4.442;2023-01-10T03:50:16;4.50;99.90
23609;DHT22;11982;50.810;4.442;2023-01-10T03:52:44;4.40;99.90
23609;DHT22;11982;50.810;4.442;2023-01-10T03:55:13;4.40;99.90
23609;DHT22;11982;50.810;4.442;2023-01-10T03:57:42;4.30;99.90
23609;DHT22;11982;50.810;4.442;2023-01-10T04:00:11;4.30;99.90
23609;DHT22;11982;50.810;4.442;2023-01-10T04:02:37;4.30;99.90
23609;DHT22;11982;50.810;4.442;2023-01-10T04:05:03;4.30;99.90
23609;DHT22;11982;50.810;4.442;2023-01-10T04:07:29;4.30;99.90
23609;DHT22;11982;50.810;4.442;2023-01-10T04:09:55;4.20;99.90
23609;DHT22;11982;50.810;4.442;2023-01-10T04:12:21;4.30;99.90
23609;DHT22;11982;50.810;4.442;2023-01-10T04:14:47;4.30;99.90
23609;DHT22;11982;50.810;4.442;2023-01-10T04:17:14;4.20;99.90
23609;DHT22;11982;50.810;4.442;2023-01-10T04:19:40;4.20;99.90
23609;DHT22;11982;50.810;4.442;2023-01-10T04:22:07;4.20;99.90
23609;DHT22;11982;50.810;4.442;2023-01-10T04:24:32;4.20;99.90
23609;DHT22;11982;50.810;4.442;2023-01-10T04:26:58;4.20;99.90
23609;DHT22;11982;50.810;4.442;2023-01-10T04:29:24;4.30;99.90
23609;DHT22;11982;50.810;4.442;2023-01-10T04:31:50;4.30;99.90
23609;DHT22;11982;50.810;4.442;2023-01-10T04:34:15;4.30;99.90
23609;DHT22;11982;50.810;4.442;2023-01-10T04:36:41;4.30;99.90
23609;DHT22;11982;50.810;4.442;2023-01-10T04:39:07;4.30;99.90
23609;DHT22;11982;50.810;4.442;2023-01-10T04:41:33;4.30;99.90
23609;DHT22;11982;50.810;4.442;2023-01-10T04:43:59;4.30;99.90
23609;DHT22;11982;50.810;4.442;2023-01-10T04:46:24;4.20;99.90
23609;DHT22;11982;50.810;4.442;2023-01-10T04:48:50;4.20;99.90
23609;DHT22;11982;50.810;4.442;2023-01-10T04:51:16;4.10;99.90
23609;DHT22;11982;50.810;4.442;2023-01-10T04:53:42;4.10;99.90
23609;DHT22;11982;50.810;4.442;2023-01-10T04:56:09;4.00;99.90
23609;DHT22;11982;50.810;4.442;2023-01-10T04:58:39;4.00;99.90
23609;DHT22;11982;50.810;4.442;2023-01-10T05:01:13;4.00;99.90
23609;DHT22;11982;50.810;4.442;2023-01-10T05:03:40;4.00;99.90
23609;DHT22;11982;50.810;4.442;2023-01-10T05:06:06;4.00;99.90
23609;DHT22;11982;50.810;4.442;2023-01-10T05:08:33;4.00;99.90
23609;DHT22;11982;50.810;4.442;2023-01-10T05:10:58;3.90;99.90
23609;DHT22;11982;50.810;4.442;2023-01-10T05:13:24;3.90;99.90
23609;DHT22;11982;50.810;4.442;2023-01-10T05:15:55;3.90;99.90
23609;DHT22;11982;50.810;4.442;2023-01-10T05:18:25;3.90;99.90
23609;DHT22;11982;50.810;4.442;2023-01-10T05:20:51;3.90;99.90
23609;DHT22;11982;50.810;4.442;2023-01-10T05:23:17;3.90;99.90
23609;DHT22;11982;50.810;4.442;2023-01-10T05:25:43;3.80;99.90
23609;DHT22;11982;50.810;4.442;2023-01-10T05:28:09;3.80;99.90
23609;DHT22;11982;50.810;4.442;2023-01-10T05:30:35;3.70;99.90
23609;DHT22;11982;50.810;4.442;2023-01-10T05:33:03;3.70;99.90
23609;DHT22;11982;50.810;4.442;2023-01-10T05:35:29;3.70;99.90
23609;DHT22;11982;50.810;4.442;2023-01-10T05:37:54;3.70;99.90
23609;DHT22;11982;50.810;4.442;2023-01-10T05:40:20;3.60;99.90
23609;DHT22;11982;50.810;4.442;2023-01-10T05:42:46;3.60;99.90
23609;DHT22;11982;50.810;4.442;2023-01-10T05:45:11;3.60;99.90
23609;DHT22;11982;50.810;4.442;2023-01-10T05:47:37;3.60;99.90
23609;DHT22;11982;50.810;4.442;2023-01-10T05:50:03;3.60;99.90
23609;DHT22;11982;50.810;4.442;2023-01-10T05:52:29;3.60;99.90
23609;DHT22;11982;50.810;4.442;2023-01-10T05:54:54;3.60;99.90
23609;DHT22;11982;50.810;4.442;2023-01-10T05:57:20;3.60;99.90
23609;DHT22;11982;50.810;4.442;2023-01-10T05:59:46;3.60;99.90
23609;DHT22;11982;50.810;4.442;2023-01-10T06:02:12;3.60;99.90
23609;DHT22;11982;50.810;4.442;2023-01-10T06:04:38;3.60;99.90
23609;DHT22;11982;50.810;4.442;2023-01-10T06:07:03;3.60;99.90
23609;DHT22;11982;50.810;4.442;2023-01-10T06:09:29;3.60;99.90
23609;DHT22;11982;50.810;4.442;2023-01-10T06:11:55;3.60;99.90
23609;DHT22;11982;50.810;4.442;2023-01-10T06:14:20;3.60;99.90
23609;DHT22;11982;50.810;4.442;2023-01-10T06:16:46;3.60;99.90
23609;DHT22;11982;50.810;4.442;2023-01-10T06:19:12;3.50;99.90
23609;DHT22;11982;50.810;4.442;2023-01-10T06:21:38;3.50;99.90
23609;DHT22;11982;50.810;4.442;2023-01-10T06:24:04;3.50;99.90
23609;DHT22;11982;50.810;4.442;2023-01-10T06:26:30;3.50;99.90
23609;DHT22;11982;50.810;4.442;2023-01-10T06:28:55;3.50;99.90
23609;DHT22;11982;50.810;4.442;2023-01-10T06:31:24;3.50;99.90
23609;DHT22;11982;50.810;4.442;2023-01-10T06:33:50;3.50;99.90
23609;DHT22;11982;50.810;4.442;2023-01-10T06:36:16;3.50;99.90
23609;DHT22;11982;50.810;4.442;2023-01-10T06:38:42;3.50;99.90
23609;DHT22;11982;50.810;4.442;2023-01-10T06:41:08;3.50;99.90
23609;DHT22;11982;50.810;4.442;2023-01-10T06:43:44;3.40;99.90
23609;DHT22;11982;50.810;4.442;2023-01-10T06:46:17;3.40;99.90
23609;DHT22;11982;50.810;4.442;2023-01-10T06:48:44;3.40;99.90
23609;DHT22;11982;50.810;4.442;2023-01-10T06:51:12;3.40;99.90
23609;DHT22;11982;50.810;4.442;2023-01-10T06:53:38;3.40;99.90
23609;DHT22;11982;50.810;4.442;2023-01-10T06:56:04;3.40;99.90
23609;DHT22;11982;50.810;4.442;2023-01-10T06:58:30;3.40;99.90
23609;DHT22;11982;50.810;4.442;2023-01-10T07:00:56;3.40;99.90
23609;DHT22;11982;50.810;4.442;2023-01-10T07:03:22;3.40;99.90
23609;DHT22;11982;50.810;4.442;2023-01-10T07:05:47;3.40;99.90
23609;DHT22;11982;50.810;4.442;2023-01-10T07:08:13;3.30;99.90
23609;DHT22;11982;50.810;4.442;2023-01-10T07:10:40;3.40;99.90
23609;DHT22;11982;50.810;4.442;2023-01-10T07:13:06;3.40;99.90
23609;DHT22;11982;50.810;4.442;2023-01-10T07:15:32;3.40;99.90
23609;DHT22;11982;50.810;4.442;2023-01-10T07:17:58;3.40;99.90
23609;DHT22;11982;50.810;4.442;2023-01-10T07:20:24;3.40;99.90
23609;DHT22;11982;50.810;4.442;2023-01-10T07:22:54;3.40;99.90
23609;DHT22;11982;50.810;4.442;2023-01-10T07:25:20;3.40;99.90
23609;DHT22;11982;50.810;4.442;2023-01-10T07:27:46;3.50;99.90
23609;DHT22;11982;50.810;4.442;2023-01-10T07:30:12;3.40;99.90
23609;DHT22;11982;50.810;4.442;2023-01-10T07:32:38;3.50;99.90
23609;DHT22;11982;50.810;4.442;2023-01-10T07:35:04;3.50;99.90
23609;DHT22;11982;50.810;4.442;2023-01-10T07:37:29;3.50;99.90
23609;DHT22;11982;50.810;4.442;2023-01-10T07:39:55;3.50;99.90
23609;DHT22;11982;50.810;4.442;2023-01-10T07:42:21;3.50;99.90
23609;DHT22;11982;50.810;4.442;2023-01-10T07:44:46;3.50;99.90
23609;DHT22;11982;50.810;4.442;2023-01-10T07:47:12;3.40;99.90
23609;DHT22;11982;50.810;4.442;2023-01-10T07:49:38;3.50;99.90
23609;DHT22;11982;50.810;4.442;2023-01-10T07:52:03;3.60;99.90
23609;DHT22;11982;50.810;4.442;2023-01-10T07:54:32;3.60;99.90
23609;DHT22;11982;50.810;4.442;2023-01-10T07:56:57;3.70;99.90
23609;DHT22;11982;50.810;4.442;2023-01-10T07:59:23;3.80;99.90
23609;DHT22;11982;50.810;4.442;2023-01-10T08:01:49;3.80;99.90
23609;DHT22;11982;50.810;4.442;2023-01-10T08:04:14;3.90;99.90
23609;DHT22;11982;50.810;4.442;2023-01-10T08:06:40;3.90;99.90
23609;DHT22;11982;50.810;4.442;2023-01-10T08:09:05;3.90;99.90
23609;DHT22;11982;50.810;4.442;2023-01-10T08:11:31;4.00;99.90
23609;DHT22;11982;50.810;4.442;2023-01-10T08:13:57;4.10;99.90
23609;DHT22;11982;50.810;4.442;2023-01-10T08:16:22;4.10;99.90
23609;DHT22;11982;50.810;4.442;2023-01-10T08:18:48;4.20;99.90
23609;DHT22;11982;50.810;4.442;2023-01-10T08:21:14;4.30;99.90
23609;DHT22;11982;50.810;4.442;2023-01-10T08:23:39;4.30;99.90
23609;DHT22;11982;50.810;4.442;2023-01-10T08:26:05;4.40;99.90
23609;DHT22;11982;50.810;4.442;2023-01-10T08:28:31;4.40;99.90
23609;DHT22;11982;50.810;4.442;2023-01-10T08:30:57;4.40;99.90
23609;DHT22;11982;50.810;4.442;2023-01-10T08:33:23;4.40;99.90
23609;DHT22;11982;50.810;4.442;2023-01-10T08:35:50;4.40;99.90
23609;DHT22;11982;50.810;4.442;2023-01-10T08:38:15;4.40;99.90
23609;DHT22;11982;50.810;4.442;2023-01-10T08:40:41;4.50;99.90
23609;DHT22;11982;50.810;4.442;2023-01-10T08:43:09;4.60;99.90
23609;DHT22;11982;50.810;4.442;2023-01-10T08:45:37;4.70;99.90
23609;DHT22;11982;50.810;4.442;2023-01-10T08:48:05;4.70;99.90
23609;DHT22;11982;50.810;4.442;2023-01-10T08:50:33;4.80;99.90
23609;DHT22;11982;50.810;4.442;2023-01-10T08:53:00;4.80;99.90
23609;DHT22;11982;50.810;4.442;2023-01-10T08:55:26;4.90;99.90
23609;DHT22;11982;50.810;4.442;2023-01-10T08:57:52;4.80;99.90
23609;DHT22;11982;50.810;4.442;2023-01-10T09:00:18;4.90;99.90
23609;DHT22;11982;50.810;4.442;2023-01-10T09:02:44;4.90;99.90
23609;DHT22;11982;50.810;4.442;2023-01-10T09:05:11;4.90;99.90
23609;DHT22;11982;50.810;4.442;2023-01-10T09:07:36;5.00;99.90
23609;DHT22;11982;50.810;4.442;2023-01-10T09:10:03;5.10;99.90
23609;DHT22;11982;50.810;4.442;2023-01-10T09:12:29;5.10;99.90
23609;DHT22;11982;50.810;4.442;2023-01-10T09:15:13;5.20;99.90
23609;DHT22;11982;50.810;4.442;2023-01-10T09:17:39;5.30;99.90
23609;DHT22;11982;50.810;4.442;2023-01-10T09:20:05;5.30;99.90
23609;DHT22;11982;50.810;4.442;2023-01-10T09:22:35;5.40;99.90
23609;DHT22;11982;50.810;4.442;2023-01-10T09:25:00;5.50;99.90
23609;DHT22;11982;50.810;4.442;2023-01-10T09:27:26;5.40;99.90
23609;DHT22;11982;50.810;4.442;2023-01-10T09:29:52;5.60;99.90
23609;DHT22;11982;50.810;4.442;2023-01-10T09:32:17;5.60;99.90
23609;DHT22;11982;50.810;4.442;2023-01-10T09:34:44;5.70;99.90
23609;DHT22;11982;50.810;4.442;2023-01-10T09:37:09;5.70;99.90
23609;DHT22;11982;50.810;4.442;2023-01-10T09:39:35;5.70;99.90
23609;DHT22;11982;50.810;4.442;2023-01-10T09:42:06;5.80;99.90
23609;DHT22;11982;50.810;4.442;2023-01-10T09:44:48;5.90;99.90
23609;DHT22;11982;50.810;4.442;2023-01-10T09:47:26;6.00;99.90
23609;DHT22;11982;50.810;4.442;2023-01-10T09:50:19;5.90;99.90
23609;DHT22;11982;50.810;4.442;2023-01-10T09:52:51;5.90;99.90
23609;DHT22;11982;50.810;4.442;2023-01-10T09:55:30;6.10;99.90
23609;DHT22;11982;50.810;4.442;2023-01-10T09:58:19;6.20;99.90
23609;DHT22;11982;50.810;4.442;2023-01-10T10:00:48;6.30;99.90
23609;DHT22;11982;50.810;4.442;2023-01-10T10:03:21;6.30;99.90
23609;DHT22;11982;50.810;4.442;2023-01-10T10:05:48;6.40;99.90
23609;DHT22;11982;50.810;4.442;2023-01-10T10:08:16;6.40;99.90
23609;DHT22;11982;50.810;4.442;2023-01-10T10:19:47;6.60;99.90
23609;DHT22;11982;50.810;4.442;2023-01-10T10:30:13;6.70;99.90
23609;DHT22;11982;50.810;4.442;2023-01-10T10:35:54;6.80;99.90
23609;DHT22;11982;50.810;4.442;2023-01-10T10:38:37;7.00;99.90
23609;DHT22;11982;50.810;4.442;2023-01-10T10:44:17;7.20;99.90
23609;DHT22;11982;50.810;4.442;2023-01-10T10:46:46;7.20;99.90
23609;DHT22;11982;50.810;4.442;2023-01-10T10:51:58;7.30;99.90
23609;DHT22;11982;50.810;4.442;2023-01-10T10:54:24;7.40;99.90
23609;DHT22;11982;50.810;4.442;2023-01-10T10:56:50;7.50;99.90
23609;DHT22;11982;50.810;4.442;2023-01-10T10:59:20;7.60;99.90
23609;DHT22;11982;50.810;4.442;2023-01-10T11:01:46;7.50;99.90
23609;DHT22;11982;50.810;4.442;2023-01-10T11:04:17;7.60;99.90
23609;DHT22;11982;50.810;4.442;2023-01-10T11:06:44;7.80;99.90
23609;DHT22;11982;50.810;4.442;2023-01-10T11:09:15;7.70;99.90
23609;DHT22;11982;50.810;4.442;2023-01-10T11:11:45;7.60;99.90
23609;DHT22;11982;50.810;4.442;2023-01-10T11:14:14;7.50;99.90
23609;DHT22;11982;50.810;4.442;2023-01-10T11:16:42;7.40;99.90
23609;DHT22;11982;50.810;4.442;2023-01-10T11:21:52;7.40;99.90
23609;DHT22;11982;50.810;4.442;2023-01-10T11:25:11;7.40;99.90
23609;DHT22;11982;50.810;4.442;2023-01-10T11:27:19;7.30;99.90
23609;DHT22;11982;50.810;4.442;2023-01-10T11:29:48;7.40;99.90
23609;DHT22;11982;50.810;4.442;2023-01-10T11:32:21;7.50;99.90
23609;DHT22;11982;50.810;4.442;2023-01-10T11:35:00;7.60;99.90
23609;DHT22;11982;50.810;4.442;2023-01-10T11:37:31;7.50;99.90
23609;DHT22;11982;50.810;4.442;2023-01-10T11:40:18;7.60;99.90
23609;DHT22;11982;50.810;4.442;2023-01-10T11:42:46;7.50;99.90
23609;DHT22;11982;50.810;4.442;2023-01-10T11:45:32;7.60;99.90
23609;DHT22;11982;50.810;4.442;2023-01-10T11:48:06;7.70;99.90
23609;DHT22;11982;50.810;4.442;2023-01-10T11:50:37;7.70;99.90
23609;DHT22;11982;50.810;4.442;2023-01-10T11:53:05;7.70;99.90
23609;DHT22;11982;50.810;4.442;2023-01-10T11:55:34;7.70;99.90
23609;DHT22;11982;50.810;4.442;2023-01-10T11:58:11;7.80;99.90
23609;DHT22;11982;50.810;4.442;2023-01-10T12:00:44;7.90;99.90
23609;DHT22;11982;50.810;4.442;2023-01-10T12:03:31;7.90;99.90
23609;DHT22;11982;50.810;4.442;2023-01-10T12:08:31;8.20;99.90
23609;DHT22;11982;50.810;4.442;2023-01-10T12:11:00;8.10;99.90
23609;DHT22;11982;50.810;4.442;2023-01-10T12:13:28;7.90;99.90
23609;DHT22;11982;50.810;4.442;2023-01-10T12:16:19;7.90;99.90
23609;DHT22;11982;50.810;4.442;2023-01-10T12:18:47;7.70;99.90
23609;DHT22;11982;50.810;4.442;2023-01-10T12:21:17;7.70;99.90
23609;DHT22;11982;50.810;4.442;2023-01-10T12:23:45;7.70;99.90
23609;DHT22;11982;50.810;4.442;2023-01-10T12:26:12;7.60;99.90
23609;DHT22;11982;50.810;4.442;2023-01-10T12:28:43;7.50;99.90
23609;DHT22;11982;50.810;4.442;2023-01-10T12:31:13;7.50;99.90
23609;DHT22;11982;50.810;4.442;2023-01-10T12:36:48;7.50;99.90
23609;DHT22;11982;50.810;4.442;2023-01-10T12:39:26;7.50;99.90
23609;DHT22;11982;50.810;4.442;2023-01-10T12:50:38;7.40;99.90
23609;DHT22;11982;50.810;4.442;2023-01-10T12:55:39;7.50;99.90
23609;DHT22;11982;50.810;4.442;2023-01-10T12:58:40;7.50;99.90
23609;DHT22;11982;50.810;4.442;2023-01-10T13:01:15;7.50;99.90
23609;DHT22;11982;50.810;4.442;2023-01-10T13:03:42;7.40;99.90
23609;DHT22;11982;50.810;4.442;2023-01-10T13:06:19;7.30;99.90
23609;DHT22;11982;50.810;4.442;2023-01-10T13:08:46;7.40;99.90
23609;DHT22;11982;50.810;4.442;2023-01-10T13:11:14;7.40;99.90
23609;DHT22;11982;50.810;4.442;2023-01-10T13:13:48;7.50;99.90
23609;DHT22;11982;50.810;4.442;2023-01-10T13:16:35;7.40;99.90
23609;DHT22;11982;50.810;4.442;2023-01-10T13:19:22;7.30;99.90
23609;DHT22;11982;50.810;4.442;2023-01-10T13:21:48;7.20;99.90
23609;DHT22;11982;50.810;4.442;2023-01-10T13:26:54;7.20;99.90
23609;DHT22;11982;50.810;4.442;2023-01-10T13:29:28;7.10;99.90
23609;DHT22;11982;50.810;4.442;2023-01-10T13:31:57;7.20;99.90
23609;DHT22;11982;50.810;4.442;2023-01-10T13:34:32;7.20;99.90
23609;DHT22;11982;50.810;4.442;2023-01-10T13:37:26;7.10;99.90
23609;DHT22;11982;50.810;4.442;2023-01-10T13:39:54;7.00;99.90
23609;DHT22;11982;50.810;4.442;2023-01-10T14:06:31;6.70;99.90
23609;DHT22;11982;50.810;4.442;2023-01-10T14:14:36;6.50;99.90
23609;DHT22;11982;50.810;4.442;2023-01-10T14:19:37;6.50;99.90
23609;DHT22;11982;50.810;4.442;2023-01-10T14:22:04;6.50;99.90
23609;DHT22;11982;50.810;4.442;2023-01-10T14:24:41;6.50;99.90
23609;DHT22;11982;50.810;4.442;2023-01-10T14:27:15;6.40;99.90
23609;DHT22;11982;50.810;4.442;2023-01-10T14:29:52;6.30;99.90
23609;DHT22;11982;50.810;4.442;2023-01-10T14:32:32;6.40;99.90
23609;DHT22;11982;50.810;4.442;2023-01-10T14:35:01;6.40;99.90
23609;DHT22;11982;50.810;4.442;2023-01-10T14:37:32;6.40;99.90
23609;DHT22;11982;50.810;4.442;2023-01-10T14:40:26;6.40;99.90
23609;DHT22;11982;50.810;4.442;2023-01-10T14:42:50;6.40;99.90
23609;DHT22;11982;50.810;4.442;2023-01-10T14:47:48;6.40;99.90
23609;DHT22;11982;50.810;4.442;2023-01-10T14:50:28;6.40;99.90
23609;DHT22;11982;50.810;4.442;2023-01-10T14:52:57;6.40;99.90
23609;DHT22;11982;50.810;4.442;2023-01-10T14:55:24;6.40;99.90
23609;DHT22;11982;50.810;4.442;2023-01-10T14:57:59;6.50;99.90
23609;DHT22;11982;50.810;4.442;2023-01-10T15:00:31;6.50;99.90
23609;DHT22;11982;50.810;4.442;2023-01-10T15:02:59;6.50;99.90
23609;DHT22;11982;50.810;4.442;2023-01-10T15:05:30;6.50;99.90
23609;DHT22;11982;50.810;4.442;2023-01-10T15:08:24;6.50;99.90
23609;DHT22;11982;50.810;4.442;2023-01-10T15:10:53;6.40;99.90
23609;DHT22;11982;50.810;4.442;2023-01-10T15:13:23;6.40;99.90
23609;DHT22;11982;50.810;4.442;2023-01-10T15:15:50;6.40;99.90
23609;DHT22;11982;50.810;4.442;2023-01-10T15:18:30;6.50;99.90
23609;DHT22;11982;50.810;4.442;2023-01-10T15:21:00;6.40;99.90
23609;DHT22;11982;50.810;4.442;2023-01-10T15:23:33;6.40;99.90
23609;DHT22;11982;50.810;4.442;2023-01-10T15:26:02;6.50;99.90
23609;DHT22;11982;50.810;4.442;2023-01-10T15:28:28;6.40;99.90
23609;DHT22;11982;50.810;4.442;2023-01-10T15:30:55;6.40;99.90
23609;DHT22;11982;50.810;4.442;2023-01-10T15:33:28;6.40;99.90
23609;DHT22;11982;50.810;4.442;2023-01-10T15:35:55;6.40;99.90
23609;DHT22;11982;50.810;4.442;2023-01-10T15:38:24;6.40;99.90
23609;DHT22;11982;50.810;4.442;2023-01-10T15:41:02;6.40;99.90
23609;DHT22;11982;50.810;4.442;2023-01-10T15:43:29;6.40;99.90
23609;DHT22;11982;50.810;4.442;2023-01-10T15:45:56;6.40;99.90
23609;DHT22;11982;50.810;4.442;2023-01-10T15:56:39;6.50;99.90
23609;DHT22;11982;50.810;4.442;2023-01-10T16:01:57;6.50;99.90
23609;DHT22;11982;50.810;4.442;2023-01-10T16:04:25;6.50;99.90
23609;DHT22;11982;50.810;4.442;2023-01-10T16:07:03;6.50;99.90
23609;DHT22;11982;50.810;4.442;2023-01-10T16:09:30;6.50;99.90
23609;DHT22;11982;50.810;4.442;2023-01-10T16:11:55;6.50;99.90
23609;DHT22;11982;50.810;4.442;2023-01-10T16:14:40;6.50;99.90
23609;DHT22;11982;50.810;4.442;2023-01-10T16:17:05;6.60;99.90
23609;DHT22;11982;50.810;4.442;2023-01-10T16:19:31;6.60;99.90
23609;DHT22;11982;50.810;4.442;2023-01-10T16:21:58;6.60;99.90
23609;DHT22;11982;50.810;4.442;2023-01-10T16:24:33;6.60;99.90
23609;DHT22;11982;50.810;4.442;2023-01-10T16:27:02;6.60;99.90
23609;DHT22;11982;50.810;4.442;2023-01-10T16:29:31;6.70;99.90
23609;DHT22;11982;50.810;4.442;2023-01-10T16:31:57;6.60;99.90
23609;DHT22;11982;50.810;4.442;2023-01-10T16:34:22;6.70;99.90
23609;DHT22;11982;50.810;4.442;2023-01-10T16:36:50;6.70;99.90
23609;DHT22;11982;50.810;4.442;2023-01-10T16:41:42;6.70;99.90
23609;DHT22;11982;50.810;4.442;2023-01-10T16:44:27;6.70;99.90
23609;DHT22;11982;50.810;4.442;2023-01-10T16:46:53;6.70;99.90
23609;DHT22;11982;50.810;4.442;2023-01-10T16:49:19;6.80;99.90
23609;DHT22;11982;50.810;4.442;2023-01-10T16:51:46;6.80;99.90
23609;DHT22;11982;50.810;4.442;2023-01-10T16:54:13;6.90;99.90
23609;DHT22;11982;50.810;4.442;2023-01-10T16:56:39;6.90;99.90
23609;DHT22;11982;50.810;4.442;2023-01-10T16:59:05;6.90;99.90
23609;DHT22;11982;50.810;4.442;2023-01-10T17:01:36;6.90;99.90
23609;DHT22;11982;50.810;4.442;2023-01-10T17:04:05;7.00;99.90
23609;DHT22;11982;50.810;4.442;2023-01-10T17:06:31;7.00;99.90
23609;DHT22;11982;50.810;4.442;2023-01-10T17:08:57;7.10;99.90
23609;DHT22;11982;50.810;4.442;2023-01-10T17:11:28;7.10;99.90
23609;DHT22;11982;50.810;4.442;2023-01-10T17:13:55;7.20;99.90
23609;DHT22;11982;50.810;4.442;2023-01-10T17:16:22;7.20;99.90
23609;DHT22;11982;50.810;4.442;2023-01-10T17:18:48;7.20;99.90
23609;DHT22;11982;50.810;4.442;2023-01-10T17:21:19;7.30;99.90
23609;DHT22;11982;50.810;4.442;2023-01-10T17:23:46;7.20;99.90
23609;DHT22;11982;50.810;4.442;2023-01-10T17:26:13;7.30;99.90
23609;DHT22;11982;50.810;4.442;2023-01-10T17:28:40;7.30;99.90
23609;DHT22;11982;50.810;4.442;2023-01-10T17:31:06;7.40;99.90
23609;DHT22;11982;50.810;4.442;2023-01-10T17:33:32;7.40;99.90
23609;DHT22;11982;50.810;4.442;2023-01-10T17:35:59;7.50;99.90
23609;DHT22;11982;50.810;4.442;2023-01-10T17:38:26;7.60;99.90
23609;DHT22;11982;50.810;4.442;2023-01-10T17:40:53;7.60;99.90
23609;DHT22;11982;50.810;4.442;2023-01-10T17:43:19;7.60;99.90
23609;DHT22;11982;50.810;4.442;2023-01-10T17:45:50;7.60;99.90
23609;DHT22;11982;50.810;4.442;2023-01-10T17:48:17;7.60;99.90
23609;DHT22;11982;50.810;4.442;2023-01-10T17:50:44;7.60;99.90
23609;DHT22;11982;50.810;4.442;2023-01-10T17:53:11;7.60;99.90
23609;DHT22;11982;50.810;4.442;2023-01-10T17:55:43;7.60;99.90
23609;DHT22;11982;50.810;4.442;2023-01-10T17:58:09;7.70;99.90
23609;DHT22;11982;50.810;4.442;2023-01-10T18:00:34;7.70;99.90
23609;DHT22;11982;50.810;4.442;2023-01-10T18:03:00;7.70;99.90
23609;DHT22;11982;50.810;4.442;2023-01-10T18:05:26;7.70;99.90
23609;DHT22;11982;50.810;4.442;2023-01-10T18:07:51;7.80;99.90